Time;durP1;ratioP1;P1;durP2;ratioP2;P2;SDS_P1;SDS_P2;PMS_P1;PMS_P2;Temp;Humidity;BMP_temperature;BMP_pressure;BME280_temperature;BME280_humidity;BME280_pressure;Samples;Min_cycle;Max_cycle;Signal;HPM_P1;HPM_P2
2022/03/20 00:00:29;;;;;;;9.10;5.75;;;5.00;99.90;;;;;;5096851;27;20051;-79
2022/03/20 00:02:55;;;;;;;12.77;5.60;;;5.00;99.90;;;;;;5097833;27;20041;-79
2022/03/20 00:05:21;;;;;;;12.75;5.90;;;4.90;99.90;;;;;;5103765;27;20131;-81
2022/03/20 00:07:47;;;;;;;12.57;5.55;;;4.90;99.90;;;;;;5084624;27;20039;-80
2022/03/20 00:10:14;;;;;;;11.63;5.80;;;4.90;99.90;;;;;;5122175;27;20046;-82
2022/03/20 00:12:40;;;;;;;10.27;5.07;;;5.10;99.90;;;;;;5118405;27;20481;-79
2022/03/20 00:15:07;;;;;;;11.52;5.68;;;4.90;99.90;;;;;;5113255;27;20031;-78
2022/03/20 00:17:33;;;;;;;14.13;5.53;;;5.00;99.90;;;;;;5078419;27;20045;-81
2022/03/20 00:19:59;;;;;;;10.07;5.35;;;5.00;99.90;;;;;;5096590;27;20040;-83
2022/03/20 00:22:26;;;;;;;13.93;6.13;;;4.90;99.90;;;;;;5112380;27;20378;-78
2022/03/20 00:24:52;;;;;;;14.90;5.93;;;4.90;99.90;;;;;;5112635;27;20075;-83
2022/03/20 00:27:17;;;;;;;10.52;5.57;;;5.00;99.90;;;;;;5111026;27;20035;-82
2022/03/20 00:29:44;;;;;;;8.27;4.15;;;4.90;99.90;;;;;;5112145;27;20538;-79
2022/03/20 00:32:11;;;;;;;12.25;5.15;;;4.90;99.90;;;;;;5108440;27;20116;-79
2022/03/20 00:34:38;;;;;;;10.10;5.82;;;5.00;99.90;;;;;;5089000;27;20035;-81
2022/03/20 00:37:06;;;;;;;9.50;5.75;;;4.80;99.90;;;;;;5085875;27;20382;-83
2022/03/20 00:39:32;;;;;;;10.38;5.05;;;4.80;99.90;;;;;;5092862;27;20054;-81
2022/03/20 00:41:58;;;;;;;10.15;5.20;;;4.90;99.90;;;;;;5098053;27;20028;-83
2022/03/20 00:44:24;;;;;;;13.10;5.88;;;4.80;99.90;;;;;;5103681;27;20070;-81
2022/03/20 00:46:50;;;;;;;11.57;5.88;;;4.90;99.90;;;;;;5121431;27;20046;-80
2022/03/20 00:49:16;;;;;;;16.98;5.93;;;4.80;99.90;;;;;;5112599;27;20050;-81
2022/03/20 00:51:42;;;;;;;9.93;5.35;;;4.70;99.90;;;;;;5098751;27;20046;-81
2022/03/20 00:54:09;;;;;;;11.82;5.50;;;4.70;99.90;;;;;;5094793;27;20497;-83
2022/03/20 00:56:34;;;;;;;8.68;4.80;;;4.70;99.90;;;;;;5098765;27;20423;-81
2022/03/20 00:59:00;;;;;;;13.43;6.07;;;4.90;99.90;;;;;;5117373;27;20035;-80
2022/03/20 01:01:28;;;;;;;12.98;5.47;;;4.70;99.90;;;;;;5115598;27;20043;-80
2022/03/20 01:03:54;;;;;;;13.45;5.20;;;4.60;99.90;;;;;;5117902;27;20051;-79
2022/03/20 01:06:22;;;;;;;11.57;5.50;;;4.70;99.90;;;;;;5119208;27;20046;-81
2022/03/20 01:08:52;;;;;;;18.95;5.47;;;4.70;99.90;;;;;;5106074;27;20039;-78
2022/03/20 01:11:19;;;;;;;9.90;5.05;;;4.50;99.90;;;;;;5097546;27;20511;-82
2022/03/20 01:13:45;;;;;;;11.15;6.13;;;4.60;99.90;;;;;;5094819;27;20054;-79
2022/03/20 01:16:10;;;;;;;10.43;5.65;;;4.60;99.90;;;;;;5109256;27;20034;-82
2022/03/20 01:18:36;;;;;;;12.50;5.63;;;4.50;99.90;;;;;;5099027;27;20122;-81
2022/03/20 01:21:03;;;;;;;10.35;5.53;;;4.50;99.90;;;;;;5108221;27;20039;-80
2022/03/20 01:23:29;;;;;;;8.07;4.70;;;4.50;99.90;;;;;;5113146;27;20033;-80
2022/03/20 01:25:55;;;;;;;13.93;5.72;;;4.50;99.90;;;;;;5112018;27;20031;-79
2022/03/20 01:28:23;;;;;;;13.23;6.20;;;4.40;99.90;;;;;;5107848;27;20083;-78
2022/03/20 01:30:49;;;;;;;13.55;6.72;;;4.40;99.90;;;;;;5093880;27;20412;-81
2022/03/20 01:33:15;;;;;;;14.48;6.57;;;4.30;99.90;;;;;;5113027;27;20422;-83
2022/03/20 01:35:42;;;;;;;10.57;5.82;;;4.30;99.90;;;;;;5117135;27;20414;-80
2022/03/20 01:38:08;;;;;;;10.23;6.32;;;4.30;99.90;;;;;;5116382;27;20091;-82
2022/03/20 01:40:34;;;;;;;10.60;5.72;;;4.20;99.90;;;;;;5095257;27;20077;-79
2022/03/20 01:43:00;;;;;;;13.88;6.53;;;4.20;99.90;;;;;;5093527;27;20047;-82
2022/03/20 01:45:26;;;;;;;13.38;6.78;;;4.20;99.90;;;;;;5110707;27;20553;-79
2022/03/20 01:47:53;;;;;;;13.50;6.47;;;4.10;99.90;;;;;;5095285;27;20049;-82
2022/03/20 01:50:27;;;;;;;13.25;6.57;;;4.30;99.90;;;;;;5095248;27;20047;-80
2022/03/20 01:52:54;;;;;;;13.77;6.00;;;4.10;99.90;;;;;;5098433;27;20031;-83
2022/03/20 01:55:21;;;;;;;16.52;6.47;;;4.10;99.90;;;;;;5109740;27;20133;-83
2022/03/20 01:57:47;;;;;;;10.45;6.93;;;4.10;99.90;;;;;;5079954;27;20130;-79
2022/03/20 02:00:15;;;;;;;13.18;6.00;;;4.10;99.90;;;;;;5112821;27;20246;-80
2022/03/20 02:02:41;;;;;;;15.07;6.90;;;4.10;99.90;;;;;;5095015;27;20363;-79
2022/03/20 02:05:09;;;;;;;13.63;7.30;;;4.00;99.90;;;;;;5093042;28;20125;-81
2022/03/20 02:07:36;;;;;;;18.20;5.63;;;4.00;99.90;;;;;;5111195;27;20030;-82
2022/03/20 02:10:03;;;;;;;12.80;6.53;;;4.00;99.90;;;;;;5110390;27;20118;-81
2022/03/20 02:12:29;;;;;;;14.35;7.28;;;4.10;99.90;;;;;;5113233;28;20073;-81
2022/03/20 02:15:01;;;;;;;15.38;6.95;;;4.00;99.90;;;;;;5113806;27;20058;-80
2022/03/20 02:17:28;;;;;;;18.70;7.70;;;3.90;99.90;;;;;;5108630;28;20039;-81
2022/03/20 02:20:02;;;;;;;17.15;7.65;;;3.90;99.90;;;;;;5093202;28;21748;-80
2022/03/20 02:22:29;;;;;;;13.65;6.30;;;3.80;99.90;;;;;;5106619;28;20043;-83
2022/03/20 02:24:55;;;;;;;17.80;7.35;;;3.90;99.90;;;;;;5105764;28;20398;-82
2022/03/20 02:27:23;;;;;;;17.23;7.10;;;3.90;99.90;;;;;;5094260;27;20101;-78
2022/03/20 02:30:03;;;;;;;13.05;7.32;;;4.00;99.90;;;;;;5108542;28;20039;-79
2022/03/20 02:32:30;;;;;;;14.18;6.70;;;3.90;99.90;;;;;;5089525;28;20354;-80
2022/03/20 02:35:05;;;;;;;13.82;8.10;;;3.90;99.90;;;;;;5092512;28;20035;-79
2022/03/20 02:37:32;;;;;;;13.82;6.75;;;3.80;99.90;;;;;;5092574;28;20494;-81
2022/03/20 02:40:02;;;;;;;14.60;8.23;;;3.70;99.90;;;;;;5111102;28;20039;-80
2022/03/20 02:42:29;;;;;;;20.33;8.73;;;3.70;99.90;;;;;;5094205;27;20130;-83
2022/03/20 02:45:13;;;;;;;17.52;8.75;;;3.70;99.90;;;;;;5108846;28;20039;-84
2022/03/20 02:47:41;;;;;;;16.67;8.50;;;3.60;99.90;;;;;;5107157;28;20041;-83
2022/03/20 02:50:11;;;;;;;16.52;8.43;;;3.60;99.90;;;;;;5090312;28;20057;-78
2022/03/20 02:52:44;;;;;;;12.93;7.20;;;3.80;99.90;;;;;;5094972;28;20039;-79
2022/03/20 02:55:10;;;;;;;20.35;9.07;;;3.70;99.90;;;;;;5110636;28;20047;-81
2022/03/20 02:57:35;;;;;;;16.13;9.55;;;3.70;99.90;;;;;;5095565;28;20062;-82
2022/03/20 03:00:05;;;;;;;14.05;8.88;;;3.70;99.90;;;;;;5111113;28;20051;-81
2022/03/20 03:02:43;;;;;;;19.02;9.70;;;3.60;99.90;;;;;;5105922;28;20402;-82
2022/03/20 03:05:15;;;;;;;15.63;8.57;;;3.70;99.90;;;;;;5113306;28;20122;-81
2022/03/20 03:13:14;;;;;;;12.85;8.23;;;3.70;99.90;;;;;;5112172;27;20472;-80
2022/03/20 03:15:40;;;;;;;16.48;9.57;;;3.70;99.90;;;;;;5113649;27;20043;-83
2022/03/20 03:18:06;;;;;;;19.42;9.57;;;3.60;99.90;;;;;;5111953;27;20035;-83
2022/03/20 03:20:32;;;;;;;21.52;9.82;;;3.60;99.90;;;;;;5114243;27;20484;-79
2022/03/20 03:22:58;;;;;;;17.48;10.10;;;3.60;99.90;;;;;;5092391;27;20469;-80
2022/03/20 03:25:24;;;;;;;18.52;9.23;;;3.60;99.90;;;;;;5098457;27;20039;-82
2022/03/20 03:27:51;;;;;;;20.80;9.40;;;3.80;99.90;;;;;;5118352;27;20411;-79
2022/03/20 03:30:17;;;;;;;18.52;10.90;;;3.60;99.90;;;;;;5120367;27;20144;-81
2022/03/20 03:32:43;;;;;;;20.00;9.23;;;3.60;99.90;;;;;;5091923;27;20060;-79
2022/03/20 03:37:55;;;;;;;23.45;10.52;;;3.70;99.90;;;;;;5118320;27;20063;-80
2022/03/20 03:40:22;;;;;;;19.77;10.68;;;3.60;99.90;;;;;;5116640;27;20047;-81
2022/03/20 03:42:47;;;;;;;20.35;11.50;;;3.60;99.90;;;;;;5121974;27;20066;-82
2022/03/20 03:45:14;;;;;;;18.38;9.45;;;3.60;99.90;;;;;;5093952;27;20360;-84
2022/03/20 03:47:42;;;;;;;15.63;8.13;;;3.60;99.90;;;;;;5096116;27;20039;-85
2022/03/20 03:50:09;;;;;;;16.58;8.70;;;3.60;99.90;;;;;;5114637;27;20031;-87
2022/03/20 03:52:36;;;;;;;17.13;9.20;;;3.60;99.90;;;;;;5098748;27;20051;-83
2022/03/20 03:55:02;;;;;;;18.17;10.00;;;3.50;99.90;;;;;;5095124;27;20072;-82
2022/03/20 03:57:28;;;;;;;21.50;10.73;;;3.50;99.90;;;;;;5083325;27;20134;-82
2022/03/20 03:59:54;;;;;;;19.42;10.75;;;3.40;99.90;;;;;;5100236;27;20126;-82
2022/03/20 04:02:19;;;;;;;22.98;11.18;;;3.40;99.90;;;;;;5107914;27;20035;-79
2022/03/20 04:04:47;;;;;;;18.23;9.73;;;3.40;99.90;;;;;;5093461;27;20042;-82
2022/03/20 04:07:18;;;;;;;21.38;10.73;;;3.40;99.90;;;;;;5109800;27;20467;-85
2022/03/20 04:09:45;;;;;;;22.95;11.70;;;3.50;99.90;;;;;;5105967;27;20043;-80
2022/03/20 04:12:13;;;;;;;17.20;9.68;;;3.70;99.90;;;;;;5088066;27;20344;-82
2022/03/20 04:14:39;;;;;;;16.42;9.98;;;3.40;99.90;;;;;;5101525;27;20104;-79
2022/03/20 04:17:05;;;;;;;20.25;11.90;;;3.30;99.90;;;;;;5109973;28;20036;-86
2022/03/20 04:19:31;;;;;;;17.17;9.77;;;3.30;99.90;;;;;;5086449;28;20039;-83
2022/03/20 04:21:57;;;;;;;18.30;10.38;;;3.30;99.90;;;;;;5080730;27;20035;-86
2022/03/20 04:24:23;;;;;;;18.92;11.23;;;3.30;99.90;;;;;;5092397;27;20140;-85
2022/03/20 04:26:48;;;;;;;29.17;12.48;;;3.20;99.90;;;;;;5093812;27;20506;-82
2022/03/20 04:29:14;;;;;;;21.40;10.75;;;3.20;99.90;;;;;;5109020;27;20043;-83
2022/03/20 04:31:40;;;;;;;25.40;11.82;;;3.10;99.90;;;;;;5113068;27;20031;-82
2022/03/20 04:34:06;;;;;;;23.98;11.75;;;3.20;99.90;;;;;;5098666;27;20038;-80
2022/03/20 04:36:34;;;;;;;18.75;9.98;;;3.00;99.90;;;;;;5116051;27;20047;-80
2022/03/20 04:39:01;;;;;;;15.35;8.80;;;3.10;99.90;;;;;;5114061;27;20058;-80
2022/03/20 04:41:27;;;;;;;18.30;10.95;;;3.10;99.90;;;;;;5096322;27;20110;-81
2022/03/20 04:43:53;;;;;;;21.23;12.63;;;3.10;99.90;;;;;;5093991;27;20494;-83
2022/03/20 04:46:19;;;;;;;23.35;12.38;;;3.10;99.90;;;;;;5111414;27;20027;-81
2022/03/20 04:59:44;;;;;;;22.40;13.23;;;2.90;99.90;;;;;;5112522;27;20074;-82
2022/03/20 05:02:10;;;;;;;22.33;12.27;;;2.90;99.90;;;;;;5111773;27;20076;-86
2022/03/20 05:04:37;;;;;;;22.50;11.70;;;2.90;99.90;;;;;;5109993;27;20043;-82
2022/03/20 05:07:04;;;;;;;17.90;11.82;;;2.80;99.90;;;;;;5124735;27;20148;-82
2022/03/20 05:14:59;;;;;;;15.65;9.15;;;2.80;99.90;;;;;;5113251;27;20039;-82
2022/03/20 05:17:25;;;;;;;17.95;9.77;;;2.80;99.90;;;;;;5092327;27;20039;-85
2022/03/20 05:19:51;;;;;;;22.50;12.20;;;2.80;99.90;;;;;;5115589;27;20331;-80
2022/03/20 05:22:16;;;;;;;17.55;11.02;;;2.80;99.90;;;;;;5093851;27;20092;-80
2022/03/20 05:24:43;;;;;;;19.63;12.68;;;2.80;99.90;;;;;;5100468;27;20061;-83
2022/03/20 05:27:08;;;;;;;25.30;12.77;;;2.80;99.90;;;;;;5098514;27;20126;-81
2022/03/20 05:29:35;;;;;;;24.73;11.43;;;2.80;99.90;;;;;;5112304;27;20122;-82
2022/03/20 05:32:02;;;;;;;23.02;13.27;;;2.90;99.90;;;;;;5120945;27;20027;-85
2022/03/20 05:34:29;;;;;;;23.40;12.30;;;2.80;99.90;;;;;;5093568;27;20046;-80
2022/03/20 05:36:57;;;;;;;21.80;11.65;;;2.80;99.90;;;;;;5098376;27;20039;-82
2022/03/20 05:39:23;;;;;;;27.48;13.68;;;2.80;99.90;;;;;;5099834;27;21803;-79
2022/03/20 05:41:51;;;;;;;25.65;11.52;;;2.80;99.90;;;;;;5121570;27;20055;-84
2022/03/20 05:44:19;;;;;;;21.17;13.68;;;2.80;99.90;;;;;;5091332;28;20109;-81
2022/03/20 05:46:48;;;;;;;20.13;11.10;;;2.70;99.90;;;;;;5078300;27;20476;-85
2022/03/20 05:49:15;;;;;;;25.13;14.60;;;2.70;99.90;;;;;;5111638;27;20050;-80
2022/03/20 05:51:41;;;;;;;21.67;11.02;;;2.70;99.90;;;;;;5094985;27;20074;-82
2022/03/20 05:54:07;;;;;;;25.83;15.32;;;2.70;99.90;;;;;;5097316;27;20070;-81
2022/03/20 05:59:18;;;;;;;27.90;15.57;;;2.70;99.90;;;;;;5112743;27;20047;-82
2022/03/20 06:01:43;;;;;;;21.83;12.10;;;2.60;99.90;;;;;;5095623;28;20608;-83
2022/03/20 06:04:10;;;;;;;25.27;14.88;;;2.70;99.90;;;;;;5108277;27;20034;-81
2022/03/20 06:06:37;;;;;;;24.48;14.52;;;2.70;99.90;;;;;;5113342;27;20053;-82
2022/03/20 06:09:06;;;;;;;25.17;15.02;;;2.70;99.90;;;;;;5111884;27;20533;-85
2022/03/20 06:11:34;;;;;;;24.20;13.90;;;2.70;99.90;;;;;;5092393;27;20849;-82
2022/03/20 06:14:04;;;;;;;25.90;13.93;;;2.70;99.90;;;;;;5110182;28;20182;-84
2022/03/20 06:16:34;;;;;;;20.95;12.73;;;2.80;99.90;;;;;;5096931;28;20137;-83
2022/03/20 06:19:00;;;;;;;29.20;14.82;;;2.80;99.90;;;;;;5112782;27;20130;-83
2022/03/20 06:21:26;;;;;;;20.55;12.52;;;2.80;99.90;;;;;;5114767;27;20096;-80
2022/03/20 06:23:53;;;;;;;24.08;14.50;;;2.80;99.90;;;;;;5111901;28;20047;-82
2022/03/20 06:26:19;;;;;;;19.58;12.07;;;2.80;99.90;;;;;;5112454;28;20031;-80
2022/03/20 06:28:48;;;;;;;23.27;13.80;;;2.90;99.90;;;;;;5111300;28;20451;-83
2022/03/20 06:31:16;;;;;;;29.00;15.25;;;2.90;99.90;;;;;;5111767;27;20051;-84
2022/03/20 06:33:43;;;;;;;29.98;15.18;;;2.80;99.90;;;;;;5095664;27;20039;-83
2022/03/20 06:36:09;;;;;;;27.88;15.75;;;2.90;99.90;;;;;;5094602;28;20039;-84
2022/03/20 06:38:36;;;;;;;20.77;12.68;;;3.40;99.90;;;;;;5110262;28;20070;-82
2022/03/20 06:41:06;;;;;;;25.92;15.52;;;2.80;99.90;;;;;;5094695;28;20118;-82
2022/03/20 06:43:37;;;;;;;17.27;10.18;;;3.00;99.90;;;;;;5095596;27;20039;-80
2022/03/20 06:46:06;;;;;;;26.27;15.40;;;3.00;99.90;;;;;;5110243;28;20043;-83
2022/03/20 06:48:35;;;;;;;20.88;10.68;;;3.10;99.90;;;;;;5113955;27;20137;-77
2022/03/20 06:51:01;;;;;;;21.45;13.13;;;3.00;99.90;;;;;;5094902;27;20064;-82
2022/03/20 06:53:28;;;;;;;25.95;14.95;;;3.10;99.90;;;;;;5103396;27;20039;-85
2022/03/20 06:55:54;;;;;;;20.70;12.25;;;3.20;99.90;;;;;;5121055;27;20035;-85
2022/03/20 06:58:23;;;;;;;21.35;12.20;;;3.10;99.90;;;;;;5132155;27;20513;-81
2022/03/20 07:01:08;;;;;;;21.88;13.73;;;3.20;99.90;;;;;;5126540;27;20054;-83
2022/03/20 07:03:34;;;;;;;20.30;12.18;;;3.20;99.90;;;;;;5100490;27;20061;-81
2022/03/20 07:05:59;;;;;;;23.48;14.93;;;3.60;99.90;;;;;;5101944;27;20050;-84
2022/03/20 07:08:25;;;;;;;25.75;14.88;;;3.30;99.90;;;;;;5124116;27;20113;-83
2022/03/20 07:10:51;;;;;;;25.13;14.55;;;3.30;99.90;;;;;;5117899;27;20186;-79
2022/03/20 07:16:01;;;;;;;24.88;14.95;;;3.40;99.90;;;;;;5120700;27;20047;-85
2022/03/20 07:18:27;;;;;;;18.27;11.70;;;3.40;99.90;;;;;;5115913;27;20457;-80
2022/03/20 07:20:55;;;;;;;26.02;15.52;;;3.50;99.90;;;;;;5115348;27;20023;-83
2022/03/20 07:23:21;;;;;;;16.70;9.23;;;3.50;99.90;;;;;;5115285;27;20477;-80
2022/03/20 07:31:22;;;;;;;25.17;10.33;;;3.90;99.90;;;;;;5132425;27;20490;-79
2022/03/20 07:33:49;;;;;;;25.15;12.93;;;3.80;99.90;;;;;;5099289;27;20283;-78
2022/03/20 07:36:15;;;;;;;23.27;12.15;;;3.80;99.90;;;;;;5098611;27;20034;-80
2022/03/20 07:38:41;;;;;;;22.02;12.68;;;3.80;99.90;;;;;;5115181;27;20039;-81
2022/03/20 07:41:06;;;;;;;21.30;10.88;;;4.50;99.90;;;;;;5118850;27;20039;-78
2022/03/20 07:43:32;;;;;;;27.85;15.52;;;3.90;99.90;;;;;;5115321;27;20039;-78
2022/03/20 07:45:58;;;;;;;22.55;13.38;;;3.90;99.90;;;;;;5115957;27;20497;-78
2022/03/20 07:48:24;;;;;;;23.35;12.25;;;4.00;99.90;;;;;;5114036;27;20047;-80
2022/03/20 07:50:51;;;;;;;23.90;12.98;;;4.10;99.90;;;;;;5101493;27;20031;-85
2022/03/20 07:53:17;;;;;;;29.00;16.40;;;4.10;99.90;;;;;;5098030;27;20027;-82
2022/03/20 07:55:45;;;;;;;18.25;11.43;;;4.30;99.90;;;;;;5098014;27;20058;-81
2022/03/20 07:58:12;;;;;;;27.52;13.75;;;4.10;99.90;;;;;;5113827;27;20133;-80
2022/03/20 08:00:39;;;;;;;22.95;11.23;;;4.20;99.90;;;;;;5127200;27;20055;-79
2022/03/20 08:03:05;;;;;;;16.23;8.95;;;4.20;99.90;;;;;;5128297;27;20115;-78
2022/03/20 08:05:31;;;;;;;22.00;12.82;;;4.30;99.90;;;;;;5096736;27;20077;-79
2022/03/20 08:07:56;;;;;;;22.45;11.82;;;4.30;99.90;;;;;;5102196;27;20034;-84
2022/03/20 08:10:22;;;;;;;29.98;15.30;;;4.30;99.90;;;;;;5113283;27;20456;-78
2022/03/20 08:12:48;;;;;;;25.08;15.23;;;4.50;99.90;;;;;;5099376;27;20039;-80
2022/03/20 08:15:16;;;;;;;22.02;13.55;;;4.40;99.90;;;;;;5116672;27;20034;-80
2022/03/20 08:17:44;;;;;;;30.73;15.48;;;4.50;99.90;;;;;;5110049;27;20096;-85
2022/03/20 08:20:11;;;;;;;22.02;13.07;;;4.60;99.90;;;;;;5107802;27;20043;-80
2022/03/20 08:22:37;;;;;;;27.13;14.93;;;4.60;99.90;;;;;;5108933;27;20043;-82
2022/03/20 08:25:04;;;;;;;28.25;13.57;;;4.70;99.90;;;;;;5111658;27;20054;-81
2022/03/20 08:27:30;;;;;;;24.90;12.32;;;4.70;99.90;;;;;;5122610;27;20054;-82
2022/03/20 08:30:00;;;;;;;25.63;15.02;;;4.80;99.90;;;;;;5115106;27;20606;-83
2022/03/20 08:32:27;;;;;;;24.27;14.40;;;5.00;99.90;;;;;;5126022;27;20065;-84
2022/03/20 08:34:53;;;;;;;23.88;14.80;;;5.60;99.90;;;;;;5101863;27;20039;-86
2022/03/20 08:37:18;;;;;;;27.38;16.02;;;5.20;99.90;;;;;;5132170;27;20377;-82
2022/03/20 08:39:47;;;;;;;18.65;10.82;;;5.70;99.90;;;;;;5100766;27;20049;-84
2022/03/20 08:42:13;;;;;;;19.30;12.15;;;5.70;99.90;;;;;;5115272;27;20159;-82
2022/03/20 08:44:58;;;;;;;24.48;13.82;;;5.30;99.90;;;;;;5099152;27;20070;-84
2022/03/20 08:47:51;;;;;;;29.23;14.35;;;5.30;99.90;;;;;;5095542;27;20053;-79
2022/03/20 08:50:36;;;;;;;23.42;12.15;;;5.40;99.90;;;;;;5098591;27;20355;-80
2022/03/20 08:53:40;;;;;;;25.77;15.02;;;5.40;99.90;;;;;;5095755;27;20084;-79
2022/03/20 08:56:17;;;;;;;30.88;16.65;;;5.50;99.90;;;;;;5095091;27;20039;-80
2022/03/20 08:58:50;;;;;;;30.67;15.45;;;5.80;99.90;;;;;;5096182;27;20458;-78
2022/03/20 09:01:17;;;;;;;28.58;12.23;;;6.10;99.90;;;;;;5111609;27;20046;-77
2022/03/20 09:03:45;;;;;;;22.80;12.65;;;6.00;99.90;;;;;;5110722;27;20047;-80
2022/03/20 09:06:11;;;;;;;25.33;13.95;;;5.90;99.90;;;;;;5076473;27;20108;-79
2022/03/20 09:08:37;;;;;;;23.92;14.25;;;5.90;99.90;;;;;;5115084;27;20051;-77
2022/03/20 09:11:03;;;;;;;17.98;11.23;;;5.90;99.90;;;;;;5111362;27;20050;-80
2022/03/20 09:13:29;;;;;;;32.45;16.17;;;6.00;99.90;;;;;;5113374;27;20534;-77
2022/03/20 09:21:24;;;;;;;26.80;15.02;;;6.10;99.90;;;;;;5110985;27;20058;-79
2022/03/20 09:23:49;;;;;;;29.98;14.77;;;6.20;99.90;;;;;;5111368;27;20398;-77
2022/03/20 09:26:15;;;;;;;28.35;13.40;;;6.30;99.90;;;;;;5092635;27;20095;-80
2022/03/20 09:28:41;;;;;;;31.33;17.83;;;6.40;99.90;;;;;;5106100;27;20039;-76
2022/03/20 09:31:10;;;;;;;31.05;18.05;;;6.70;99.90;;;;;;5110545;27;20438;-76
2022/03/20 09:33:35;;;;;;;25.05;15.23;;;6.50;99.90;;;;;;5125801;27;20027;-80
2022/03/20 09:36:01;;;;;;;25.52;15.75;;;6.60;99.90;;;;;;5102785;28;20161;-80
2022/03/20 09:38:27;;;;;;;26.80;16.65;;;6.60;99.90;;;;;;5118252;27;20115;-79
2022/03/20 09:40:54;;;;;;;30.63;18.63;;;6.70;99.90;;;;;;5102308;28;20047;-82
2022/03/20 09:43:20;;;;;;;25.42;14.35;;;7.20;99.90;;;;;;5110456;27;20463;-81
2022/03/20 09:45:53;;;;;;;25.77;15.65;;;6.90;99.90;;;;;;5093294;27;20088;-80
2022/03/20 09:48:19;;;;;;;31.77;18.80;;;7.00;99.90;;;;;;5093612;27;20544;-82
2022/03/20 09:50:47;;;;;;;26.40;17.63;;;7.00;99.90;;;;;;5103064;27;20067;-81
2022/03/20 09:53:13;;;;;;;36.00;19.10;;;7.30;99.90;;;;;;5108772;27;20062;-80
2022/03/20 09:55:38;;;;;;;38.33;18.23;;;7.30;99.90;;;;;;5108867;27;20035;-81
2022/03/20 09:58:04;;;;;;;28.52;17.90;;;7.40;99.90;;;;;;5109352;27;20046;-78
2022/03/20 10:00:32;;;;;;;28.80;14.93;;;7.60;99.90;;;;;;5133582;27;20062;-84
2022/03/20 10:02:57;;;;;;;26.55;16.52;;;8.20;99.90;;;;;;5115648;27;20046;-82
2022/03/20 10:05:28;;;;;;;37.17;17.80;;;7.80;99.90;;;;;;5108632;27;20050;-81
2022/03/20 10:08:08;;;;;;;29.77;17.65;;;7.80;99.90;;;;;;5116551;27;20054;-80
2022/03/20 10:10:33;;;;;;;24.25;13.40;;;7.90;99.90;;;;;;5110078;27;20043;-84
2022/03/20 10:13:00;;;;;;;24.58;15.98;;;8.10;99.90;;;;;;5087368;28;20487;-84
2022/03/20 10:15:38;;;;;;;30.23;18.75;;;8.00;99.90;;;;;;5106430;28;20479;-84
2022/03/20 10:18:21;;;;;;;41.67;16.33;;;8.20;99.90;;;;;;5110249;28;20042;-82
2022/03/20 10:20:49;;;;;;;27.23;15.52;;;8.30;99.90;;;;;;5103571;28;20135;-82
2022/03/20 10:23:28;;;;;;;23.08;14.30;;;8.40;99.90;;;;;;5092589;28;20055;-86
2022/03/20 10:25:55;;;;;;;29.80;16.15;;;8.40;99.90;;;;;;5092353;28;22035;-87
2022/03/20 10:28:21;;;;;;;21.83;12.88;;;8.50;99.90;;;;;;5112275;28;20039;-83
2022/03/20 10:31:00;;;;;;;27.92;17.52;;;8.70;99.90;;;;;;5110949;28;20563;-88
2022/03/20 10:33:26;;;;;;;29.60;19.23;;;8.70;99.90;;;;;;5092276;28;20426;-83
2022/03/20 10:36:09;;;;;;;26.02;17.70;;;9.00;99.90;;;;;;5086489;28;20066;-85
2022/03/20 10:38:38;;;;;;;33.95;19.63;;;9.30;99.50;;;;;;5106162;28;20067;-83
2022/03/20 10:41:24;;;;;;;30.65;18.67;;;9.20;99.90;;;;;;5087429;28;20101;-79
2022/03/20 10:43:50;;;;;;;;;;;9.50;98.10;;;;;;5108389;28;20122;-81
2022/03/20 10:46:26;;;;;;;32.55;16.65;;;9.60;98.10;;;;;;5091730;28;19926;-80
2022/03/20 10:48:55;;;;;;;31.35;18.92;;;9.60;97.80;;;;;;5106554;28;20128;-82
2022/03/20 10:51:40;;;;;;;27.80;16.38;;;9.70;98.10;;;;;;5092169;28;20055;-79
2022/03/20 10:54:11;;;;;;;30.90;19.67;;;9.80;97.50;;;;;;5092765;28;20105;-80
2022/03/20 10:56:50;;;;;;;27.30;18.33;;;9.70;97.00;;;;;;5108016;28;20441;-79
2022/03/20 10:59:16;;;;;;;30.50;15.27;;;9.90;97.10;;;;;;5090235;28;20085;-81
2022/03/20 11:02:23;;;;;;;28.13;18.40;;;10.10;96.30;;;;;;5104339;28;20069;-85
2022/03/20 11:04:49;;;;;;;29.63;20.65;;;10.30;97.20;;;;;;5107070;28;20051;-81
2022/03/20 11:07:20;;;;;;;31.92;21.08;;;10.40;96.50;;;;;;5090000;28;20043;-82
2022/03/20 11:09:52;;;;;;;23.55;14.80;;;10.60;96.50;;;;;;5102896;28;20044;-81
2022/03/20 11:12:37;;;;;;;34.13;21.45;;;10.70;95.90;;;;;;5106564;28;20056;-80
2022/03/20 11:15:16;;;;;;;31.02;15.10;;;10.90;95.90;;;;;;5105127;28;20043;-80
2022/03/20 11:18:18;;;;;;;29.77;18.73;;;11.00;94.90;;;;;;5090186;28;20040;-87
2022/03/20 11:21:02;;;;;;;35.35;21.15;;;11.10;94.70;;;;;;5107039;28;20122;-83
2022/03/20 11:23:47;;;;;;;25.33;16.30;;;11.50;94.90;;;;;;5089350;28;20074;-84
2022/03/20 11:26:24;;;;;;;35.25;20.25;;;11.10;94.40;;;;;;5077467;28;20088;-80
2022/03/20 11:29:04;;;;;;;32.10;21.17;;;11.20;94.50;;;;;;5087499;28;20043;-84
2022/03/20 11:31:49;;;;;;;34.22;20.35;;;11.50;94.30;;;;;;5079531;28;20487;-84
2022/03/20 11:34:21;;;;;;;30.88;19.55;;;11.50;93.90;;;;;;5084133;27;20038;-84
2022/03/20 11:37:09;;;;;;;28.70;20.00;;;11.80;93.00;;;;;;5123840;27;20485;-80
2022/03/20 11:40:08;;;;;;;32.58;21.17;;;11.70;92.10;;;;;;5092375;27;20126;-80
2022/03/20 11:42:42;;;;;;;29.92;20.38;;;11.90;93.00;;;;;;5106895;28;20390;-81
2022/03/20 11:45:11;;;;;;;24.10;18.00;;;12.10;93.00;;;;;;5089652;28;20079;-81
2022/03/20 11:48:41;;;;;;;31.10;19.05;;;12.40;90.90;;;;;;5104610;28;20398;-82
2022/03/20 11:51:13;;;;;;;30.45;20.10;;;11.80;91.70;;;;;;5106176;28;20072;-82
2022/03/20 11:53:40;;;;;;;24.70;16.77;;;12.00;91.00;;;;;;5112270;27;20083;-82
2022/03/20 11:56:07;;;;;;;33.50;19.33;;;12.10;88.90;;;;;;5104323;27;20052;-81
2022/03/20 11:58:37;;;;;;;28.60;18.52;;;12.20;88.90;;;;;;5108933;28;20043;-80
2022/03/20 12:01:04;;;;;;;32.13;18.92;;;12.40;89.80;;;;;;5092909;28;20036;-80
2022/03/20 12:03:56;;;;;;;28.70;20.10;;;12.50;90.00;;;;;;5111540;28;20028;-80
2022/03/20 12:06:43;;;;;;;25.40;18.35;;;12.50;88.20;;;;;;5109886;28;20047;-79
2022/03/20 12:09:40;;;;;;;29.45;18.58;;;12.80;88.60;;;;;;5092404;28;20070;-80
2022/03/20 12:12:31;;;;;;;31.02;18.23;;;12.80;89.00;;;;;;5106565;27;20098;-81
2022/03/20 12:15:03;;;;;;;27.35;18.23;;;12.90;87.80;;;;;;5104322;28;20058;-80
2022/03/20 12:18:02;;;;;;;28.23;18.77;;;13.00;85.30;;;;;;5093662;28;20042;-80
2022/03/20 12:20:55;;;;;;;31.85;20.60;;;13.00;82.80;;;;;;5101478;28;20071;-81
2022/03/20 12:23:43;;;;;;;29.10;19.35;;;13.00;82.00;;;;;;5105281;28;20051;-86
2022/03/20 12:26:52;;;;;;;30.45;21.55;;;12.80;82.10;;;;;;5106592;27;20490;-83
2022/03/20 12:29:33;;;;;;;27.10;20.02;;;12.90;83.00;;;;;;5028310;28;20058;-85
2022/03/20 12:32:09;;;;;;;29.58;18.40;;;13.20;82.70;;;;;;5038467;28;20072;-81
2022/03/20 12:35:04;;;;;;;28.55;19.55;;;13.40;79.60;;;;;;5027619;28;20041;-81
2022/03/20 12:37:33;;;;;;;25.17;17.63;;;13.50;79.70;;;;;;4976793;28;20048;-81
2022/03/20 12:40:18;;;;;;;31.58;20.08;;;13.70;78.50;;;;;;5015051;28;20055;-80
2022/03/20 12:43:08;;;;;;;27.98;20.55;;;13.80;79.60;;;;;;5026860;28;20045;-82
2022/03/20 12:45:35;;;;;;;32.90;18.50;;;14.10;82.10;;;;;;5028666;28;20128;-79
2022/03/20 12:48:03;;;;;;;25.88;17.98;;;13.80;79.00;;;;;;5029448;28;20094;-79
2022/03/20 12:50:39;;;;;;;28.75;17.65;;;13.90;76.00;;;;;;5021454;28;20449;-79
2022/03/20 12:53:11;;;;;;;28.08;20.40;;;13.90;76.00;;;;;;5029588;28;20039;-81
2022/03/20 12:55:39;;;;;;;27.00;19.00;;;13.80;78.50;;;;;;5026422;28;20569;-80
2022/03/20 12:58:07;;;;;;;31.17;18.35;;;13.80;75.70;;;;;;5016245;28;20040;-79
2022/03/20 13:00:36;;;;;;;30.02;19.85;;;13.70;75.70;;;;;;5009532;28;20106;-79
2022/03/20 13:03:18;;;;;;;26.27;20.45;;;14.10;75.90;;;;;;5041481;28;20133;-80
2022/03/20 13:05:57;;;;;;;30.27;20.90;;;14.20;76.90;;;;;;5090253;28;20047;-81
2022/03/20 13:08:25;;;;;;;30.10;17.70;;;14.20;75.30;;;;;;5105249;28;20084;-80
2022/03/20 13:10:56;;;;;;;32.22;18.15;;;13.90;74.80;;;;;;5091023;28;20487;-82
2022/03/20 13:13:33;;;;;;;29.55;20.58;;;14.00;74.50;;;;;;5090798;27;20046;-84
2022/03/20 13:16:01;;;;;;;31.80;21.27;;;13.90;74.60;;;;;;5099238;27;20079;-79
2022/03/20 13:18:30;;;;;;;26.15;17.67;;;13.80;76.40;;;;;;5109204;27;20155;-80
2022/03/20 13:21:03;;;;;;;32.42;20.70;;;13.70;75.40;;;;;;5084916;28;20117;-81
2022/03/20 13:23:29;;;;;;;31.63;20.52;;;13.60;74.10;;;;;;5085062;28;20036;-77
2022/03/20 13:26:00;;;;;;;25.38;19.17;;;13.40;77.10;;;;;;5104088;28;20054;-80
2022/03/20 13:28:34;;;;;;;30.50;20.52;;;13.00;77.10;;;;;;5106259;28;20045;-81
2022/03/20 13:31:02;;;;;;;29.05;20.50;;;13.10;77.50;;;;;;5112892;27;20146;-82
2022/03/20 13:33:38;;;;;;;29.27;20.65;;;13.20;80.70;;;;;;5092863;27;20036;-83